Weather at Mont Blanc Hélicoptères

Public forecast

Using degrees Celsius for public forecast. Weather courtesy of forecast.io.

Closest aviation weather report (METAR) to Mont Blanc Hélicoptères

Closest report is Aosta Airport, 24.6 nm (45.5 km) ENE. Retrieved 2020/09/26 07:50 UTC (16 minutes ago):

LIMW 260750Z AUTO 26018KT 9999 NCD 14/M04 Q1004

Closest aviation forecast (TAF) to Mont Blanc Hélicoptères

Closest forecast is Annecy-Haute-Savoie-Mont Blanc Airport, 37.1 nm (68.8 km) NW. Retrieved 2020/09/26 09:00 UTC (0 seconds ago):

TAF LFLP 260800Z 2609/2709 VRB02KT 9999 SCT030 BKN040 TEMPO 2609/2618 VRB12KT 4000 SHRA BKN030TCU PROB40 TEMPO 2609/2617 VRB15G30KT 2000 TSRAGS BKN025CB TEMPO 2706/2709 -RA